createdAt,value
2019-05-14T00:00:17.530Z,2.00
2019-05-14T00:02:51.893Z,1.97
2019-05-14T00:05:21.627Z,1.87
2019-05-14T00:07:52.202Z,2.07
2019-05-14T00:10:22.337Z,2.20
2019-05-14T00:12:52.342Z,2.33
2019-05-14T00:15:22.541Z,1.90
2019-05-14T00:17:52.543Z,1.97
2019-05-14T00:20:23.316Z,1.80
2019-05-14T00:22:53.335Z,2.10
2019-05-14T00:25:23.345Z,1.90
2019-05-14T00:27:53.967Z,2.07
2019-05-14T00:30:24.054Z,2.10
2019-05-14T00:32:54.038Z,1.90
2019-05-14T00:35:24.138Z,2.30
2019-05-14T00:37:54.105Z,2.37
2019-05-14T00:40:24.114Z,2.53
2019-05-14T00:42:54.160Z,1.80
2019-05-14T00:45:24.168Z,2.60
2019-05-14T00:47:54.227Z,2.07
2019-05-14T00:50:25.782Z,2.40
2019-05-14T00:52:56.313Z,2.40
2019-05-14T00:55:26.402Z,2.17
2019-05-14T00:57:56.376Z,2.40
2019-05-14T01:00:27.196Z,2.40
2019-05-14T01:03:02.049Z,2.47
2019-05-14T01:05:32.466Z,2.00
2019-05-14T01:08:02.532Z,2.40
2019-05-14T01:10:32.596Z,2.60
2019-05-14T01:13:02.584Z,2.53
2019-05-14T01:15:32.604Z,2.40
2019-05-14T01:18:02.593Z,2.40
2019-05-14T01:20:32.663Z,2.47
2019-05-14T01:23:02.657Z,2.83
2019-05-14T01:25:32.661Z,2.60
2019-05-14T01:28:02.714Z,2.50
2019-05-14T01:30:36.870Z,2.40
2019-05-14T01:33:06.924Z,2.70
2019-05-14T01:35:36.922Z,2.60
2019-05-14T01:38:08.700Z,2.67
2019-05-14T01:40:38.705Z,3.10
2019-05-14T01:43:08.709Z,2.47
2019-05-14T01:45:38.719Z,2.80
2019-05-14T01:48:08.729Z,2.67
2019-05-14T01:50:38.711Z,3.30
2019-05-14T01:53:08.708Z,3.07
2019-05-14T01:55:41.456Z,3.03
2019-05-14T01:58:11.684Z,2.90
2019-05-14T02:00:41.778Z,3.00
2019-05-14T02:03:12.223Z,2.73
2019-05-14T02:05:42.320Z,2.93
2019-05-14T02:08:12.330Z,2.67
2019-05-14T02:10:42.403Z,3.30
2019-05-14T02:13:12.442Z,3.30
2019-05-14T02:15:44.222Z,3.07
2019-05-14T02:18:14.236Z,3.40
2019-05-14T02:20:44.232Z,3.37
2019-05-14T02:23:14.235Z,3.10
2019-05-14T02:25:44.214Z,3.33
2019-05-14T02:28:16.453Z,3.17
2019-05-14T02:30:53.624Z,3.67
2019-05-14T02:33:19.254Z,3.20
2019-05-14T02:35:49.660Z,3.40
2019-05-14T02:38:19.741Z,3.07
2019-05-14T02:40:49.822Z,3.47
2019-05-14T02:43:20.300Z,3.37
2019-05-14T02:46:05.953Z,2.97
2019-05-14T02:48:22.170Z,3.70
2019-05-14T02:50:53.302Z,3.57
2019-05-14T02:53:23.393Z,3.27
2019-05-14T02:55:53.368Z,3.40
2019-05-14T02:58:23.368Z,3.70
2019-05-14T03:00:53.381Z,3.63
2019-05-14T03:03:23.639Z,3.60
2019-05-14T03:05:53.687Z,3.80
2019-05-14T03:08:23.768Z,3.60
2019-05-14T03:10:53.986Z,4.03
2019-05-14T03:13:25.633Z,4.00
2019-05-14T03:15:59.396Z,4.53
2019-05-14T03:18:29.617Z,4.13
2019-05-14T03:21:01.041Z,4.33
2019-05-14T03:23:31.349Z,3.50
2019-05-14T03:26:01.405Z,4.17
2019-05-14T03:28:31.404Z,4.07
2019-05-14T03:31:03.614Z,3.73
2019-05-14T03:33:34.323Z,4.10
2019-05-14T03:36:09.460Z,3.60
2019-05-14T03:38:39.472Z,3.60
2019-05-14T03:41:09.351Z,4.03
2019-05-14T03:43:40.216Z,4.13
2019-05-14T03:46:10.368Z,4.80
2019-05-14T03:48:40.412Z,4.60
2019-05-14T03:51:10.668Z,4.40
2019-05-14T03:53:55.893Z,3.73
2019-05-14T03:56:13.383Z,3.90
2019-05-14T03:58:43.536Z,4.33
2019-05-14T04:01:14.583Z,4.20
2019-05-14T04:03:44.907Z,4.20
2019-05-14T04:06:19.003Z,4.10
2019-05-14T04:08:49.743Z,4.33
2019-05-14T04:11:22.415Z,4.37
2019-05-14T04:13:55.691Z,4.30
2019-05-14T04:16:29.256Z,4.17
2019-05-14T04:19:02.366Z,4.27
2019-05-14T04:21:32.826Z,4.10
2019-05-14T04:24:04.638Z,3.90
2019-05-14T04:26:53.140Z,3.50
2019-05-14T04:29:10.991Z,3.80
2019-05-14T04:31:42.561Z,4.63
2019-05-14T04:34:14.497Z,4.40
2019-05-14T04:36:45.462Z,4.30
2019-05-14T04:39:15.555Z,4.07
2019-05-14T04:41:45.894Z,4.53
2019-05-14T04:44:18.943Z,4.43
2019-05-14T04:46:49.391Z,4.80
2019-05-14T04:49:20.171Z,4.60
2019-05-14T04:51:50.601Z,5.03
2019-05-14T04:54:20.687Z,4.67
2019-05-14T04:56:51.136Z,4.70
2019-05-14T04:59:21.316Z,5.13
2019-05-14T05:01:51.305Z,5.43
2019-05-14T05:04:21.317Z,5.53
2019-05-14T05:06:51.342Z,4.93
2019-05-14T05:09:21.336Z,4.87
2019-05-14T05:11:51.422Z,5.33
2019-05-14T05:14:23.786Z,4.90
2019-05-14T05:16:54.185Z,5.30
2019-05-14T05:19:24.218Z,4.83
2019-05-14T05:21:54.217Z,5.10
2019-05-14T05:24:24.207Z,5.17
2019-05-14T05:26:54.226Z,5.23
2019-05-14T05:29:24.241Z,5.20
2019-05-14T05:31:54.257Z,4.97
2019-05-14T05:34:24.235Z,5.43
2019-05-14T05:36:55.322Z,4.80
2019-05-14T05:39:25.313Z,4.70
2019-05-14T05:41:58.347Z,5.10
2019-05-14T05:44:28.727Z,4.60
2019-05-14T05:46:59.817Z,5.00
2019-05-14T05:49:29.900Z,5.43
2019-05-14T05:51:59.910Z,5.30
2019-05-14T05:54:29.923Z,4.70
2019-05-14T05:56:59.918Z,4.40
2019-05-14T05:59:30.005Z,5.00
2019-05-14T06:02:00.063Z,5.00
2019-05-14T06:04:30.087Z,4.73
2019-05-14T06:07:02.882Z,4.50
2019-05-14T06:09:34.119Z,4.50
2019-05-14T06:12:04.190Z,4.33
2019-05-14T06:14:34.200Z,4.33
2019-05-14T06:17:04.229Z,3.90
2019-05-14T06:19:34.221Z,3.40
2019-05-14T06:22:04.437Z,3.27
2019-05-14T06:24:34.369Z,3.47
2019-05-14T06:27:04.939Z,3.23
2019-05-14T06:29:34.925Z,2.93
2019-05-14T06:32:05.087Z,2.70
2019-05-14T06:34:35.101Z,3.13
2019-05-14T06:37:05.361Z,3.40
2019-05-14T06:39:35.376Z,3.00
2019-05-14T06:42:05.359Z,3.10
2019-05-14T06:44:35.377Z,3.50
2019-05-14T06:47:05.436Z,3.13
2019-05-14T06:49:35.457Z,2.77
2019-05-14T06:52:08.467Z,2.50
2019-05-14T06:54:38.722Z,2.33
2019-05-14T06:57:09.548Z,2.30
2019-05-14T06:59:39.546Z,2.20
2019-05-14T07:02:09.567Z,2.13
2019-05-14T07:04:41.181Z,2.50
2019-05-14T07:07:14.219Z,2.10
2019-05-14T07:09:44.249Z,2.50
2019-05-14T07:12:14.240Z,2.10
2019-05-14T07:14:48.214Z,1.70
2019-05-14T07:17:18.552Z,1.17
2019-05-14T07:19:49.167Z,1.40
2019-05-14T07:22:19.693Z,1.20
2019-05-14T07:24:50.094Z,1.60
2019-05-14T07:27:20.150Z,1.23
2019-05-14T07:29:50.175Z,1.30
2019-05-14T07:32:20.167Z,1.23
2019-05-14T07:34:50.180Z,1.03
2019-05-14T07:37:22.533Z,1.40
2019-05-14T07:39:52.552Z,1.40
2019-05-14T07:42:22.541Z,1.10
2019-05-14T07:44:52.561Z,1.10
2019-05-14T07:47:22.560Z,1.47
2019-05-14T07:49:52.577Z,1.00
2019-05-14T07:52:22.571Z,0.80
2019-05-14T07:54:52.672Z,1.00
2019-05-14T07:57:22.679Z,0.97
2019-05-14T07:59:52.873Z,1.07
2019-05-14T08:02:22.869Z,1.00
2019-05-14T08:04:52.893Z,1.00
2019-05-14T08:07:22.980Z,1.20
2019-05-14T08:09:52.975Z,0.90
2019-05-14T08:12:23.068Z,0.90
2019-05-14T08:15:10.884Z,0.90
2019-05-14T08:17:24.844Z,1.20
2019-05-14T08:19:54.873Z,0.93
2019-05-14T08:22:24.901Z,0.83
2019-05-14T08:24:54.888Z,0.90
2019-05-14T08:27:28.030Z,0.90
2019-05-14T08:29:58.774Z,0.90
2019-05-14T08:32:28.537Z,0.83
2019-05-14T08:34:58.585Z,0.83
2019-05-14T08:37:28.655Z,1.00
2019-05-14T08:39:58.966Z,1.10
2019-05-14T08:42:29.254Z,0.90
2019-05-14T08:44:59.488Z,0.70
2019-05-14T08:47:29.595Z,0.90
2019-05-14T08:50:00.074Z,0.70
2019-05-14T08:52:30.274Z,0.70
2019-05-14T08:55:07.251Z,0.67
2019-05-14T08:57:32.097Z,0.80
2019-05-14T09:00:02.250Z,0.80
2019-05-14T09:02:32.324Z,0.80
2019-05-14T09:05:04.332Z,0.83
2019-05-14T09:07:34.377Z,0.80
2019-05-14T09:10:08.697Z,1.00
2019-05-14T09:12:39.075Z,0.70
2019-05-14T09:15:09.942Z,1.00
2019-05-14T09:17:40.123Z,0.80
2019-05-14T09:20:11.655Z,0.90
2019-05-14T09:22:42.056Z,0.80
2019-05-14T09:25:12.414Z,0.90
2019-05-14T09:27:42.402Z,0.87
2019-05-14T09:30:12.765Z,0.77
2019-05-14T09:32:42.776Z,0.80
2019-05-14T09:35:13.135Z,0.70
2019-05-14T09:37:51.294Z,0.70
2019-05-14T09:40:20.060Z,0.80
2019-05-14T09:42:51.664Z,0.60
2019-05-14T09:45:21.750Z,0.70
2019-05-14T09:47:51.927Z,0.60
2019-05-14T09:50:23.611Z,0.70
2019-05-14T09:52:53.754Z,0.80
2019-05-14T09:55:23.770Z,0.70
2019-05-14T09:57:53.855Z,0.53
2019-05-14T10:00:24.227Z,0.53
2019-05-14T10:02:54.373Z,0.50
2019-05-14T10:05:24.445Z,0.50
2019-05-14T10:07:54.535Z,0.60
2019-05-14T10:10:24.689Z,0.43
2019-05-14T10:12:57.327Z,0.50
2019-05-14T10:15:28.692Z,0.50
2019-05-14T10:18:00.283Z,0.60
2019-05-14T10:20:40.149Z,0.60
2019-05-14T10:23:03.991Z,0.50
2019-05-14T10:25:34.059Z,0.60
2019-05-14T10:28:04.156Z,0.50
2019-05-14T10:30:34.217Z,0.40
2019-05-14T10:33:09.115Z,0.50
2019-05-14T10:35:36.045Z,0.50
2019-05-14T10:38:08.781Z,0.60
2019-05-14T10:40:38.512Z,0.70
2019-05-14T10:43:09.272Z,0.70
2019-05-14T10:45:39.591Z,0.50
2019-05-14T10:48:09.873Z,0.77
2019-05-14T10:50:56.095Z,0.60
2019-05-14T10:53:13.329Z,0.60
2019-05-14T10:55:43.332Z,0.60
2019-05-14T10:58:13.368Z,0.57
2019-05-14T11:00:43.466Z,0.70
2019-05-14T11:03:15.266Z,0.60
2019-05-14T11:05:45.273Z,0.53
2019-05-14T11:08:19.121Z,0.70
2019-05-14T11:10:49.883Z,0.60
2019-05-14T11:13:20.018Z,0.60
2019-05-14T11:15:51.122Z,0.67
2019-05-14T11:18:23.100Z,0.70
2019-05-14T11:20:53.190Z,0.70
2019-05-14T11:23:23.230Z,0.60
2019-05-14T11:25:54.701Z,0.80
2019-05-14T11:28:24.665Z,0.70
2019-05-14T11:30:56.644Z,0.80
2019-05-14T11:33:29.518Z,0.70
2019-05-14T11:35:59.169Z,0.50
2019-05-14T11:38:37.213Z,0.50
2019-05-14T11:41:02.307Z,0.60
2019-05-14T11:43:32.368Z,0.60
2019-05-14T11:46:02.509Z,0.60
2019-05-14T11:48:32.506Z,0.70
2019-05-14T11:51:02.947Z,0.70
2019-05-14T11:53:34.479Z,0.63
2019-05-14T11:56:08.808Z,0.53
2019-05-14T11:58:41.567Z,0.63
2019-05-14T12:01:11.701Z,0.70
2019-05-14T12:03:43.506Z,0.50
2019-05-14T12:06:13.526Z,0.50
2019-05-14T12:08:43.863Z,0.60
2019-05-14T12:11:19.164Z,0.60
2019-05-14T12:13:48.860Z,0.60
2019-05-14T12:16:21.189Z,0.60
2019-05-14T12:18:52.902Z,0.50
2019-05-14T12:21:22.985Z,0.60
2019-05-14T12:23:53.021Z,0.70
2019-05-14T12:26:23.160Z,0.67
2019-05-14T12:28:56.044Z,0.60
2019-05-14T12:31:28.936Z,0.60
2019-05-14T12:34:00.591Z,0.60
2019-05-14T12:36:30.609Z,0.80
2019-05-14T12:39:00.875Z,0.60
2019-05-14T12:41:35.041Z,0.90
2019-05-14T12:44:09.045Z,0.80
2019-05-14T12:46:37.755Z,0.70
2019-05-14T12:49:11.546Z,0.60
2019-05-14T12:51:42.520Z,0.60
2019-05-14T12:54:11.860Z,0.60
2019-05-14T12:56:43.843Z,0.60
2019-05-14T12:59:13.945Z,0.70
2019-05-14T13:01:45.146Z,0.50
2019-05-14T13:04:20.061Z,0.50
2019-05-14T13:06:51.414Z,0.50
2019-05-14T13:09:21.818Z,0.63
2019-05-14T13:11:52.176Z,0.70
2019-05-14T13:14:22.273Z,0.50
2019-05-14T13:16:55.043Z,0.57
2019-05-14T13:19:28.457Z,0.77
2019-05-14T13:22:13.358Z,0.57
2019-05-14T13:24:32.378Z,0.70
2019-05-14T13:27:02.402Z,0.50
2019-05-14T13:29:35.671Z,0.50
2019-05-14T13:32:12.055Z,0.60
2019-05-14T13:34:39.587Z,0.57
2019-05-14T13:37:12.410Z,0.80
2019-05-14T13:39:52.916Z,0.73
2019-05-14T13:42:20.144Z,0.57
2019-05-14T13:44:50.147Z,0.60
2019-05-14T13:47:21.748Z,0.60
2019-05-14T13:49:51.833Z,0.70
2019-05-14T13:52:22.053Z,0.50
2019-05-14T13:54:54.927Z,0.63
2019-05-14T13:57:25.031Z,0.60
2019-05-14T13:59:58.997Z,0.50
2019-05-14T14:02:31.359Z,0.50
2019-05-14T14:05:01.225Z,0.60
2019-05-14T14:07:33.383Z,0.50
2019-05-14T14:10:03.747Z,0.60
2019-05-14T14:12:36.180Z,0.60
2019-05-14T14:15:09.431Z,0.70
2019-05-14T14:17:39.992Z,0.50
2019-05-14T14:20:12.206Z,0.70
2019-05-14T14:22:48.896Z,0.50
2019-05-14T14:25:19.279Z,0.60
2019-05-14T14:27:49.528Z,0.63
2019-05-14T14:30:20.711Z,0.50
2019-05-14T14:32:50.737Z,0.50
2019-05-14T14:35:23.331Z,0.70
2019-05-14T14:37:52.591Z,0.53
2019-05-14T14:40:23.339Z,0.50
2019-05-14T14:42:53.722Z,0.50
2019-05-14T14:45:23.786Z,0.57
2019-05-14T14:47:56.735Z,1.03
2019-05-14T14:50:28.914Z,0.50
2019-05-14T14:53:00.612Z,0.60
2019-05-14T14:55:30.898Z,0.60
2019-05-14T14:58:00.928Z,0.60
2019-05-14T15:00:31.019Z,0.67
2019-05-14T15:03:01.097Z,0.60
2019-05-14T15:05:32.890Z,0.60
2019-05-14T15:08:05.117Z,0.60
2019-05-14T15:10:39.486Z,0.50
2019-05-14T15:13:16.753Z,0.67
2019-05-14T15:15:49.488Z,0.60
2019-05-14T15:18:22.671Z,0.60
2019-05-14T15:20:52.749Z,0.60
2019-05-14T15:23:29.798Z,0.60
2019-05-14T15:26:01.697Z,0.50
2019-05-14T15:28:33.369Z,0.50
2019-05-14T15:31:08.527Z,0.70
2019-05-14T15:33:40.685Z,0.60
2019-05-14T15:36:10.843Z,0.60
2019-05-14T15:38:44.384Z,0.50
2019-05-14T15:41:15.068Z,0.73
2019-05-14T15:43:47.381Z,0.50
2019-05-14T15:46:18.441Z,0.70
2019-05-14T15:48:49.034Z,0.60
2019-05-14T15:51:19.818Z,0.70
2019-05-14T15:54:05.416Z,0.60
2019-05-14T15:56:21.828Z,0.70
2019-05-14T15:58:51.844Z,0.50
2019-05-14T16:01:21.848Z,0.80
2019-05-14T16:03:51.934Z,0.60
2019-05-14T16:06:22.026Z,0.70
2019-05-14T16:08:52.078Z,0.90
2019-05-14T16:11:25.600Z,0.60
2019-05-14T16:13:55.605Z,0.50
2019-05-14T16:16:28.989Z,0.60
2019-05-14T16:18:59.430Z,0.60
2019-05-14T16:21:29.516Z,0.80
2019-05-14T16:23:59.586Z,0.57
2019-05-14T16:26:29.668Z,0.70
2019-05-14T16:28:59.751Z,0.60
2019-05-14T16:31:37.169Z,0.60
2019-05-14T16:34:05.752Z,0.50
2019-05-14T16:36:41.188Z,0.67
2019-05-14T16:39:10.142Z,0.70
2019-05-14T16:41:40.996Z,0.70
2019-05-14T16:44:18.846Z,0.50
2019-05-14T16:46:48.609Z,0.60
2019-05-14T16:49:18.681Z,0.70
2019-05-14T16:51:49.614Z,0.60
2019-05-14T16:54:19.867Z,0.57
2019-05-14T16:56:51.407Z,0.60
2019-05-14T16:59:21.429Z,0.60
2019-05-14T17:01:51.791Z,0.60
2019-05-14T17:04:21.865Z,0.63
2019-05-14T17:06:51.927Z,0.80
2019-05-14T17:09:21.948Z,0.60
2019-05-14T17:11:53.456Z,0.70
2019-05-14T17:14:23.836Z,0.50
2019-05-14T17:16:53.847Z,0.70
2019-05-14T17:19:23.934Z,0.70
2019-05-14T17:21:59.259Z,0.60
2019-05-14T17:24:29.350Z,0.70
2019-05-14T17:26:59.703Z,0.60
2019-05-14T17:29:29.797Z,0.60
2019-05-14T17:32:00.287Z,0.53
2019-05-14T17:34:30.439Z,0.70
2019-05-14T17:37:00.460Z,0.80
2019-05-14T17:39:30.465Z,0.73
2019-05-14T17:42:00.549Z,0.60
2019-05-14T17:44:30.647Z,0.70
2019-05-14T17:47:00.718Z,1.20
2019-05-14T17:49:30.817Z,0.77
2019-05-14T17:52:02.438Z,0.60
2019-05-14T17:54:32.614Z,0.60
2019-05-14T17:57:02.674Z,0.60
2019-05-14T17:59:33.629Z,0.70
2019-05-14T18:02:04.019Z,0.77
2019-05-14T18:04:34.096Z,0.70
2019-05-14T18:07:04.264Z,0.70
2019-05-14T18:09:34.766Z,0.50
2019-05-14T18:12:05.045Z,0.77
2019-05-14T18:14:35.108Z,0.60
2019-05-14T18:17:05.211Z,0.67
2019-05-14T18:19:35.202Z,0.70
2019-05-14T18:22:05.443Z,0.70
2019-05-14T18:24:35.472Z,0.60
2019-05-14T18:27:05.628Z,0.90
2019-05-14T18:29:38.773Z,0.60
2019-05-14T18:32:08.993Z,0.60
2019-05-14T18:34:39.411Z,0.67
2019-05-14T18:37:13.914Z,0.80
2019-05-14T18:39:43.943Z,0.70
2019-05-14T18:42:14.904Z,0.80
2019-05-14T18:44:44.922Z,0.80
2019-05-14T18:47:16.886Z,0.97
2019-05-14T18:49:48.632Z,0.77
2019-05-14T18:52:18.676Z,0.70
2019-05-14T18:54:49.879Z,0.77
2019-05-14T18:57:20.113Z,0.80
2019-05-14T18:59:50.133Z,0.80
2019-05-14T19:02:20.331Z,0.70
2019-05-14T19:04:50.465Z,0.60
2019-05-14T19:07:22.035Z,0.70
2019-05-14T19:09:52.039Z,0.90
2019-05-14T19:12:23.135Z,0.70
2019-05-14T19:14:53.217Z,0.73
2019-05-14T19:17:23.220Z,1.00
2019-05-14T19:19:53.234Z,0.90
2019-05-14T19:22:24.264Z,0.73
2019-05-14T19:24:54.839Z,0.80
2019-05-14T19:27:24.855Z,0.70
2019-05-14T19:29:56.411Z,1.00
2019-05-14T19:32:29.475Z,1.00
2019-05-14T19:34:59.478Z,0.90
2019-05-14T19:37:29.525Z,0.80
2019-05-14T19:39:59.635Z,1.00
2019-05-14T19:42:29.716Z,1.10
2019-05-14T19:44:59.924Z,0.80
2019-05-14T19:47:29.912Z,1.00
2019-05-14T19:49:59.935Z,0.90
2019-05-14T19:52:30.079Z,1.00
2019-05-14T19:55:00.148Z,0.80
2019-05-14T19:57:30.153Z,1.00
2019-05-14T20:00:00.189Z,0.93
2019-05-14T20:02:30.389Z,0.93
2019-05-14T20:05:00.572Z,1.03
2019-05-14T20:07:30.708Z,0.83
2019-05-14T20:10:00.780Z,1.00
2019-05-14T20:12:32.445Z,0.93
2019-05-14T20:15:02.500Z,1.07
2019-05-14T20:17:33.065Z,0.80
2019-05-14T20:20:05.113Z,0.93
2019-05-14T20:22:35.178Z,0.80
2019-05-14T20:25:07.428Z,1.00
2019-05-14T20:27:38.968Z,1.00
2019-05-14T20:30:10.237Z,1.00
2019-05-14T20:32:44.255Z,0.60
2019-05-14T20:35:30.056Z,1.00
2019-05-14T20:37:45.724Z,2.47
2019-05-14T20:40:16.280Z,2.37
2019-05-14T20:42:49.111Z,2.30
2019-05-14T20:45:19.124Z,1.97
2019-05-14T20:47:50.430Z,1.90
2019-05-14T20:50:20.780Z,1.80
2019-05-14T20:52:53.512Z,1.50
2019-05-14T20:55:23.576Z,1.40
2019-05-14T20:57:53.621Z,1.23
2019-05-14T21:00:23.882Z,1.20
2019-05-14T21:02:53.914Z,1.47
2019-05-14T21:05:23.925Z,1.30
2019-05-14T21:07:53.963Z,1.03
2019-05-14T21:10:24.006Z,1.57
2019-05-14T21:12:57.893Z,1.40
2019-05-14T21:15:28.671Z,1.20
2019-05-14T21:17:59.529Z,1.20
2019-05-14T21:20:30.014Z,1.10
2019-05-14T21:23:00.082Z,1.47
2019-05-14T21:25:30.486Z,1.20
2019-05-14T21:28:00.487Z,1.47
2019-05-14T21:30:30.599Z,1.30
2019-05-14T21:33:00.699Z,1.73
2019-05-14T21:35:31.242Z,1.10
2019-05-14T21:38:02.778Z,1.33
2019-05-14T21:40:32.852Z,1.50
2019-05-14T21:43:02.894Z,1.20
2019-05-14T21:45:32.928Z,1.30
2019-05-14T21:48:03.012Z,1.30
2019-05-14T21:50:33.020Z,1.17
2019-05-14T21:53:03.051Z,1.47
2019-05-14T21:55:38.588Z,1.43
2019-05-14T21:58:11.701Z,1.40
2019-05-14T22:00:45.234Z,1.50
2019-05-14T22:03:15.646Z,1.20
2019-05-14T22:05:48.233Z,1.30
2019-05-14T22:08:17.685Z,1.20
2019-05-14T22:10:48.868Z,1.20
2019-05-14T22:13:19.099Z,1.13
2019-05-14T22:15:52.118Z,1.50
2019-05-14T22:18:22.160Z,1.40
2019-05-14T22:20:52.232Z,1.30
2019-05-14T22:23:22.276Z,1.17
2019-05-14T22:25:52.276Z,1.40
2019-05-14T22:28:22.376Z,1.37
2019-05-14T22:30:53.432Z,1.23
2019-05-14T22:33:24.436Z,1.57
2019-05-14T22:35:54.467Z,1.30
2019-05-14T22:38:29.404Z,1.30
2019-05-14T22:40:59.246Z,1.50
2019-05-14T22:43:29.104Z,1.23
2019-05-14T22:45:59.262Z,1.60
2019-05-14T22:48:29.299Z,1.50
2019-05-14T22:50:59.376Z,1.37
2019-05-14T22:53:30.392Z,1.53
2019-05-14T22:56:02.185Z,1.10
2019-05-14T22:58:32.263Z,1.30
2019-05-14T23:01:14.289Z,1.50
2019-05-14T23:03:34.118Z,1.30
2019-05-14T23:06:04.207Z,1.40
2019-05-14T23:08:34.317Z,1.33
2019-05-14T23:11:04.323Z,1.30
2019-05-14T23:13:34.363Z,1.20
2019-05-14T23:16:04.452Z,1.40
2019-05-14T23:18:37.955Z,1.53
2019-05-14T23:21:08.849Z,1.67
2019-05-14T23:23:39.469Z,1.40
2019-05-14T23:26:09.542Z,1.60
2019-05-14T23:28:45.426Z,2.10
2019-05-14T23:31:11.301Z,1.60
2019-05-14T23:33:41.330Z,1.67
2019-05-14T23:36:12.552Z,1.80
2019-05-14T23:38:42.621Z,1.27
2019-05-14T23:41:12.839Z,1.60
2019-05-14T23:43:42.853Z,1.70
2019-05-14T23:46:12.913Z,1.57
2019-05-14T23:48:42.927Z,1.73
2019-05-14T23:51:13.032Z,1.70
2019-05-14T23:53:44.010Z,1.60
2019-05-14T23:56:14.050Z,1.93
2019-05-14T23:58:54.739Z,1.87
